Aérodrome :
LOGIN :

S'inscrire | Disclaimer

   EN    FR    IT 

 










Légende :    VFR   VFR Marginal   IFR   IFR Intensif   IFR Très Intensif
Visi : 
Plafond : 
>= 8 km
>= 3000ft
5 à 8 km
1000 à 3000 ft
1500m à 5 km
500 à 1000 ft
800 à 1500m
200 à 500 ft
< 800m
< 200 ft
Symboles :   Orages  Brouillard  Fortes neiges  Fortes précipitations  Vent > 20 kt
SIGMETs :   Divers  Orages  Givrage  Turbulence  Onde Orograph.  Cendres Volcan.






- Altitude de l'aérodrome : 90 ft
- Code IATA : NTE


LFRS - Nantes

DERNIER METAR :
  • 032000Z AUTO 34007KT 310V040 CAVOK 17/11 Q1002 TEMPO 4500 -SHRA BKN030CB

METARs EXPIRÉS :
  • 031930Z AUTO 34008KT CAVOK 18/10 Q1002 TEMPO 4500 -SHRA BKN030CB BECMG 28010KT
  • 031900Z AUTO 34010KT 310V030 9999 FEW047 BKN074 BKN084 19/10 Q1002 TEMPO 4500 -SHRA BKN030CB
  • 031830Z AUTO 32008KT 290V360 CAVOK 20/11 Q1002 TEMPO 4500 -SHRA BKN030CB
  • 031800Z AUTO 27009KT 9999 ///CB 20/12 Q1002 TEMPO 4500 -SHRA NSC
  • 031730Z AUTO 27012KT 9999 ///CB 22/11 Q1002 TEMPO 4500 -SHRA NSC

TAF TAF LFRS
Valide du 03 à 18h jusqu'au 05 à 00h UTC


031700Z 0318/0424 28010KT CAVOK
TEMPO 0319/0409 4500 -SHRA BKN040TCU
PROB30
TEMPO 0320/0324 TSRA BKN030CB
BECMG 0401/0403 34010KT
ATIS : +33 2 40 05 12 74



MET'MAP, la Météo Aéronautique d'un coup d'oeil ! - Copyright ORBIFLY Décembre 2007 - Disclaimer

ORBIFLY MET'MAP TEAM :

Programmation & Développement : Alexandra Zaïnal
Sur une idée originale de : Baudouin d'Aumeries
Assistance à la programmation : Marc-Olivier Méhu
Soutien technique & logistique : Manuel Goepfert

Contact : metmap@orbifly.com




SOURCES & CREDITS :

   NOAA